sensor_id;sensor_type;location;lat;lon;timestamp;temperature;humidity
19385;DHT22;9828;54.122;17.974;2023-06-04T00:03:15;11.40;1.00
19385;DHT22;9828;54.122;17.974;2023-06-04T00:08:36;11.40;1.00
19385;DHT22;9828;54.122;17.974;2023-06-04T00:19:17;11.20;17.80
19385;DHT22;9828;54.122;17.974;2023-06-04T00:24:38;11.10;1.00
19385;DHT22;9828;54.122;17.974;2023-06-04T00:30:04;10.80;99.90
19385;DHT22;9828;54.122;17.974;2023-06-04T00:41:38;10.80;99.90
19385;DHT22;9828;54.122;17.974;2023-06-04T00:47:24;10.80;99.90
19385;DHT22;9828;54.122;17.974;2023-06-04T00:52:47;10.70;99.90
19385;DHT22;9828;54.122;17.974;2023-06-04T00:58:09;10.60;99.90
19385;DHT22;9828;54.122;17.974;2023-06-04T01:03:32;10.60;99.90
19385;DHT22;9828;54.122;17.974;2023-06-04T01:14:19;10.30;99.90
19385;DHT22;9828;54.122;17.974;2023-06-04T02:13:59;10.00;1.00
19385;DHT22;9828;54.122;17.974;2023-06-04T02:19:20;9.80;1.00
19385;DHT22;9828;54.122;17.974;2023-06-04T02:24:42;9.90;1.00
19385;DHT22;9828;54.122;17.974;2023-06-04T02:30:04;9.90;1.00
19385;DHT22;9828;54.122;17.974;2023-06-04T02:35:31;9.90;1.00
19385;DHT22;9828;54.122;17.974;2023-06-04T02:40:52;9.80;1.00
19385;DHT22;9828;54.122;17.974;2023-06-04T02:46:13;9.80;1.00
19385;DHT22;9828;54.122;17.974;2023-06-04T02:51:35;9.70;1.00
19385;DHT22;9828;54.122;17.974;2023-06-04T02:56:56;9.60;1.00
19385;DHT22;9828;54.122;17.974;2023-06-04T03:02:17;9.70;1.00
19385;DHT22;9828;54.122;17.974;2023-06-04T03:07:40;9.60;1.00
19385;DHT22;9828;54.122;17.974;2023-06-04T03:13:04;9.70;1.00
19385;DHT22;9828;54.122;17.974;2023-06-04T03:18:25;9.80;1.00
19385;DHT22;9828;54.122;17.974;2023-06-04T03:23:47;9.90;1.00
19385;DHT22;9828;54.122;17.974;2023-06-04T03:29:08;10.10;99.90
19385;DHT22;9828;54.122;17.974;2023-06-04T03:34:31;10.10;99.90
19385;DHT22;9828;54.122;17.974;2023-06-04T03:39:54;10.10;99.90
19385;DHT22;9828;54.122;17.974;2023-06-04T03:45:16;10.20;99.90
19385;DHT22;9828;54.122;17.974;2023-06-04T03:50:38;10.30;99.90
19385;DHT22;9828;54.122;17.974;2023-06-04T03:55:59;10.50;99.90
19385;DHT22;9828;54.122;17.974;2023-06-04T04:01:22;10.60;99.90
19385;DHT22;9828;54.122;17.974;2023-06-04T04:06:48;10.70;99.90
19385;DHT22;9828;54.122;17.974;2023-06-04T04:12:09;10.90;99.90
19385;DHT22;9828;54.122;17.974;2023-06-04T04:17:32;10.90;99.90
19385;DHT22;9828;54.122;17.974;2023-06-04T04:22:53;11.00;99.90
19385;DHT22;9828;54.122;17.974;2023-06-04T04:28:14;11.00;99.90
19385;DHT22;9828;54.122;17.974;2023-06-04T04:33:39;11.10;99.90
19385;DHT22;9828;54.122;17.974;2023-06-04T04:39:03;11.20;99.90
19385;DHT22;9828;54.122;17.974;2023-06-04T04:44:28;11.40;99.90
19385;DHT22;9828;54.122;17.974;2023-06-04T04:49:50;11.60;72.40
19385;DHT22;9828;54.122;17.974;2023-06-04T04:55:12;11.70;97.30
19385;DHT22;9828;54.122;17.974;2023-06-04T05:00:36;11.90;30.20
19385;DHT22;9828;54.122;17.974;2023-06-04T05:05:57;12.10;99.90
19385;DHT22;9828;54.122;17.974;2023-06-04T05:11:19;12.20;92.40
19385;DHT22;9828;54.122;17.974;2023-06-04T05:16:41;12.50;10.10
19385;DHT22;9828;54.122;17.974;2023-06-04T05:22:04;12.80;1.00
19385;DHT22;9828;54.122;17.974;2023-06-04T05:27:26;13.00;1.00
19385;DHT22;9828;54.122;17.974;2023-06-04T05:32:48;13.30;1.00
19385;DHT22;9828;54.122;17.974;2023-06-04T05:38:15;13.50;1.00
19385;DHT22;9828;54.122;17.974;2023-06-04T05:43:38;13.60;1.00
19385;DHT22;9828;54.122;17.974;2023-06-04T05:49:02;13.80;1.00
19385;DHT22;9828;54.122;17.974;2023-06-04T05:54:23;13.90;1.00
19385;DHT22;9828;54.122;17.974;2023-06-04T05:59:45;14.20;1.00
19385;DHT22;9828;54.122;17.974;2023-06-04T06:05:09;14.40;1.00
19385;DHT22;9828;54.122;17.974;2023-06-04T06:10:31;14.70;1.00
19385;DHT22;9828;54.122;17.974;2023-06-04T06:15:55;15.00;1.00
19385;DHT22;9828;54.122;17.974;2023-06-04T06:21:17;15.20;1.00
19385;DHT22;9828;54.122;17.974;2023-06-04T06:26:38;15.40;1.00
19385;DHT22;9828;54.122;17.974;2023-06-04T06:32:02;15.70;99.90
19385;DHT22;9828;54.122;17.974;2023-06-04T06:37:24;16.20;99.90
19385;DHT22;9828;54.122;17.974;2023-06-04T06:42:49;16.80;99.90
19385;DHT22;9828;54.122;17.974;2023-06-04T06:48:11;17.50;1.00
19385;DHT22;9828;54.122;17.974;2023-06-04T06:53:33;18.10;1.00
19385;DHT22;9828;54.122;17.974;2023-06-04T06:58:54;18.80;1.00
19385;DHT22;9828;54.122;17.974;2023-06-04T07:04:16;19.50;1.00
19385;DHT22;9828;54.122;17.974;2023-06-04T07:25:44;20.80;1.00
19385;DHT22;9828;54.122;17.974;2023-06-04T07:31:05;21.10;99.90
19385;DHT22;9828;54.122;17.974;2023-06-04T07:36:26;21.60;99.90
19385;DHT22;9828;54.122;17.974;2023-06-04T07:47:10;22.40;1.00
19385;DHT22;9828;54.122;17.974;2023-06-04T07:57:52;22.90;99.90
19385;DHT22;9828;54.122;17.974;2023-06-04T08:03:13;23.10;99.90
19385;DHT22;9828;54.122;17.974;2023-06-04T08:08:36;23.50;99.90
19385;DHT22;9828;54.122;17.974;2023-06-04T08:13:57;23.60;99.90
19385;DHT22;9828;54.122;17.974;2023-06-04T08:19:19;23.50;99.90
19385;DHT22;9828;54.122;17.974;2023-06-04T08:24:41;23.70;99.90
19385;DHT22;9828;54.122;17.974;2023-06-04T08:35:23;24.40;99.90
19385;DHT22;9828;54.122;17.974;2023-06-04T08:40:44;24.20;99.90
19385;DHT22;9828;54.122;17.974;2023-06-04T08:46:05;24.50;99.90
19385;DHT22;9828;54.122;17.974;2023-06-04T08:51:35;25.00;99.90
19385;DHT22;9828;54.122;17.974;2023-06-04T08:56:58;25.10;99.90
19385;DHT22;9828;54.122;17.974;2023-06-04T09:02:22;25.40;99.90
19385;DHT22;9828;54.122;17.974;2023-06-04T09:07:44;25.20;99.90
19385;DHT22;9828;54.122;17.974;2023-06-04T09:13:07;25.30;99.90
19385;DHT22;9828;54.122;17.974;2023-06-04T09:18:30;25.30;99.90
19385;DHT22;9828;54.122;17.974;2023-06-04T09:23:51;25.40;99.90
19385;DHT22;9828;54.122;17.974;2023-06-04T09:29:15;25.70;99.90
19385;DHT22;9828;54.122;17.974;2023-06-04T09:34:36;25.60;99.90
19385;DHT22;9828;54.122;17.974;2023-06-04T09:40:06;26.10;99.90
19385;DHT22;9828;54.122;17.974;2023-06-04T09:45:29;26.10;99.90
19385;DHT22;9828;54.122;17.974;2023-06-04T09:50:50;26.10;99.90
19385;DHT22;9828;54.122;17.974;2023-06-04T09:56:11;26.20;99.90
19385;DHT22;9828;54.122;17.974;2023-06-04T10:01:39;26.40;99.90
19385;DHT22;9828;54.122;17.974;2023-06-04T10:07:05;26.50;99.90
19385;DHT22;9828;54.122;17.974;2023-06-04T10:12:30;26.50;99.90
19385;DHT22;9828;54.122;17.974;2023-06-04T10:17:53;26.90;99.90
19385;DHT22;9828;54.122;17.974;2023-06-04T10:23:15;26.80;99.90
19385;DHT22;9828;54.122;17.974;2023-06-04T10:28:41;27.10;99.90
19385;DHT22;9828;54.122;17.974;2023-06-04T10:34:02;27.00;99.90
19385;DHT22;9828;54.122;17.974;2023-06-04T10:39:30;27.00;99.90
19385;DHT22;9828;54.122;17.974;2023-06-04T10:44:54;27.10;99.90
19385;DHT22;9828;54.122;17.974;2023-06-04T10:50:17;27.30;99.90
19385;DHT22;9828;54.122;17.974;2023-06-04T10:55:49;27.60;99.90
19385;DHT22;9828;54.122;17.974;2023-06-04T11:01:10;27.30;99.90
19385;DHT22;9828;54.122;17.974;2023-06-04T11:06:31;27.00;99.90
19385;DHT22;9828;54.122;17.974;2023-06-04T11:12:00;27.20;99.90
19385;DHT22;9828;54.122;17.974;2023-06-04T11:38:40;27.60;99.90
19385;DHT22;9828;54.122;17.974;2023-06-04T11:44:03;27.70;99.90
19385;DHT22;9828;54.122;17.974;2023-06-04T11:49:27;27.60;99.90
19385;DHT22;9828;54.122;17.974;2023-06-04T11:54:49;27.60;99.90
19385;DHT22;9828;54.122;17.974;2023-06-04T12:00:11;27.80;99.90
19385;DHT22;9828;54.122;17.974;2023-06-04T12:05:34;27.80;99.90
19385;DHT22;9828;54.122;17.974;2023-06-04T12:10:55;27.10;99.90
19385;DHT22;9828;54.122;17.974;2023-06-04T12:16:17;27.00;99.90
19385;DHT22;9828;54.122;17.974;2023-06-04T12:21:39;27.30;99.90
19385;DHT22;9828;54.122;17.974;2023-06-04T12:27:05;27.50;99.90
19385;DHT22;9828;54.122;17.974;2023-06-04T12:32:27;27.60;99.90
19385;DHT22;9828;54.122;17.974;2023-06-04T12:37:49;27.70;99.90
19385;DHT22;9828;54.122;17.974;2023-06-04T12:43:11;27.90;99.90
19385;DHT22;9828;54.122;17.974;2023-06-04T12:48:32;27.70;99.90
19385;DHT22;9828;54.122;17.974;2023-06-04T12:53:54;26.80;99.90
19385;DHT22;9828;54.122;17.974;2023-06-04T12:59:16;26.30;99.90
19385;DHT22;9828;54.122;17.974;2023-06-04T13:04:38;25.80;99.90
19385;DHT22;9828;54.122;17.974;2023-06-04T13:10:27;26.30;99.90
19385;DHT22;9828;54.122;17.974;2023-06-04T13:15:48;26.50;99.90
19385;DHT22;9828;54.122;17.974;2023-06-04T13:22:24;26.70;99.90
19385;DHT22;9828;54.122;17.974;2023-06-04T13:27:46;26.80;99.90
19385;DHT22;9828;54.122;17.974;2023-06-04T13:33:07;26.60;99.90
19385;DHT22;9828;54.122;17.974;2023-06-04T13:44:44;26.60;99.90
19385;DHT22;9828;54.122;17.974;2023-06-04T13:50:18;26.50;99.90
19385;DHT22;9828;54.122;17.974;2023-06-04T13:55:58;26.40;99.90
19385;DHT22;9828;54.122;17.974;2023-06-04T14:01:20;26.40;99.90
19385;DHT22;9828;54.122;17.974;2023-06-04T14:06:41;26.30;99.90
19385;DHT22;9828;54.122;17.974;2023-06-04T14:12:03;26.30;99.90
19385;DHT22;9828;54.122;17.974;2023-06-04T14:17:24;26.20;99.90
19385;DHT22;9828;54.122;17.974;2023-06-04T14:22:45;26.00;99.90
19385;DHT22;9828;54.122;17.974;2023-06-04T14:28:07;25.70;99.90
19385;DHT22;9828;54.122;17.974;2023-06-04T14:33:28;25.60;99.90
19385;DHT22;9828;54.122;17.974;2023-06-04T14:38:49;25.40;99.90
19385;DHT22;9828;54.122;17.974;2023-06-04T14:44:11;25.30;99.90
19385;DHT22;9828;54.122;17.974;2023-06-04T14:49:32;25.20;99.90
19385;DHT22;9828;54.122;17.974;2023-06-04T14:54:54;25.10;99.90
19385;DHT22;9828;54.122;17.974;2023-06-04T15:00:15;24.90;99.90
19385;DHT22;9828;54.122;17.974;2023-06-04T15:05:37;24.80;99.90
19385;DHT22;9828;54.122;17.974;2023-06-04T15:10:58;24.60;99.90
19385;DHT22;9828;54.122;17.974;2023-06-04T15:16:20;24.40;99.90
19385;DHT22;9828;54.122;17.974;2023-06-04T15:21:42;24.30;99.90
19385;DHT22;9828;54.122;17.974;2023-06-04T15:27:04;24.30;99.90
19385;DHT22;9828;54.122;17.974;2023-06-04T15:32:29;24.10;99.90
19385;DHT22;9828;54.122;17.974;2023-06-04T15:37:50;23.90;99.90
19385;DHT22;9828;54.122;17.974;2023-06-04T15:43:11;23.70;99.90
19385;DHT22;9828;54.122;17.974;2023-06-04T15:48:33;23.30;99.90
19385;DHT22;9828;54.122;17.974;2023-06-04T15:59:16;22.70;99.90
19385;DHT22;9828;54.122;17.974;2023-06-04T16:04:38;22.50;99.90
19385;DHT22;9828;54.122;17.974;2023-06-04T16:09:59;22.40;99.90
19385;DHT22;9828;54.122;17.974;2023-06-04T16:15:21;22.40;99.90
19385;DHT22;9828;54.122;17.974;2023-06-04T16:20:42;22.30;99.90
19385;DHT22;9828;54.122;17.974;2023-06-04T16:26:03;22.20;99.90
19385;DHT22;9828;54.122;17.974;2023-06-04T16:31:24;22.20;99.90
19385;DHT22;9828;54.122;17.974;2023-06-04T16:36:45;22.10;99.90
19385;DHT22;9828;54.122;17.974;2023-06-04T16:42:07;22.00;99.90
19385;DHT22;9828;54.122;17.974;2023-06-04T16:47:31;21.80;99.90
19385;DHT22;9828;54.122;17.974;2023-06-04T16:52:52;21.70;99.90
19385;DHT22;9828;54.122;17.974;2023-06-04T16:58:14;21.50;99.90
19385;DHT22;9828;54.122;17.974;2023-06-04T17:03:36;21.50;99.90
19385;DHT22;9828;54.122;17.974;2023-06-04T17:08:57;21.30;99.90
19385;DHT22;9828;54.122;17.974;2023-06-04T17:14:19;21.20;99.90
19385;DHT22;9828;54.122;17.974;2023-06-04T17:19:41;21.20;99.90
19385;DHT22;9828;54.122;17.974;2023-06-04T17:25:05;21.20;99.90
19385;DHT22;9828;54.122;17.974;2023-06-04T17:30:26;20.90;99.90
19385;DHT22;9828;54.122;17.974;2023-06-04T17:35:48;20.80;99.90
19385;DHT22;9828;54.122;17.974;2023-06-04T17:41:09;20.70;99.90
19385;DHT22;9828;54.122;17.974;2023-06-04T17:46:30;20.50;99.90
19385;DHT22;9828;54.122;17.974;2023-06-04T17:51:52;20.40;99.90
19385;DHT22;9828;54.122;17.974;2023-06-04T17:57:13;20.20;99.90
19385;DHT22;9828;54.122;17.974;2023-06-04T18:02:34;20.00;99.90
19385;DHT22;9828;54.122;17.974;2023-06-04T18:07:56;20.00;99.90
19385;DHT22;9828;54.122;17.974;2023-06-04T18:13:17;19.90;99.90
19385;DHT22;9828;54.122;17.974;2023-06-04T18:18:38;19.70;99.90
19385;DHT22;9828;54.122;17.974;2023-06-04T18:24:00;19.60;99.90
19385;DHT22;9828;54.122;17.974;2023-06-04T18:29:21;19.50;99.90
19385;DHT22;9828;54.122;17.974;2023-06-04T18:34:43;19.20;99.90
19385;DHT22;9828;54.122;17.974;2023-06-04T18:40:05;19.10;99.90
19385;DHT22;9828;54.122;17.974;2023-06-04T18:45:26;18.90;99.90
19385;DHT22;9828;54.122;17.974;2023-06-04T18:50:47;18.80;99.90
19385;DHT22;9828;54.122;17.974;2023-06-04T18:56:09;18.60;99.90
19385;DHT22;9828;54.122;17.974;2023-06-04T19:01:30;18.50;99.90
19385;DHT22;9828;54.122;17.974;2023-06-04T19:06:51;18.40;99.90
19385;DHT22;9828;54.122;17.974;2023-06-04T19:12:12;18.20;99.90
19385;DHT22;9828;54.122;17.974;2023-06-04T19:17:33;18.10;99.90
19385;DHT22;9828;54.122;17.974;2023-06-04T19:22:55;17.90;99.90
19385;DHT22;9828;54.122;17.974;2023-06-04T19:28:16;17.80;99.90
19385;DHT22;9828;54.122;17.974;2023-06-04T19:33:38;17.70;99.90
19385;DHT22;9828;54.122;17.974;2023-06-04T19:39:00;17.50;99.90
19385;DHT22;9828;54.122;17.974;2023-06-04T19:44:21;17.40;99.90
19385;DHT22;9828;54.122;17.974;2023-06-04T19:49:43;17.30;99.90
19385;DHT22;9828;54.122;17.974;2023-06-04T19:55:04;17.30;99.90
19385;DHT22;9828;54.122;17.974;2023-06-04T20:00:30;17.10;99.90
19385;DHT22;9828;54.122;17.974;2023-06-04T20:05:51;17.00;99.90
19385;DHT22;9828;54.122;17.974;2023-06-04T20:11:12;16.90;99.90
19385;DHT22;9828;54.122;17.974;2023-06-04T20:21:55;16.70;1.00
19385;DHT22;9828;54.122;17.974;2023-06-04T20:27:16;16.80;1.00
19385;DHT22;9828;54.122;17.974;2023-06-04T20:32:38;16.70;1.00
19385;DHT22;9828;54.122;17.974;2023-06-04T20:37:59;16.70;1.00
19385;DHT22;9828;54.122;17.974;2023-06-04T20:43:22;16.60;1.00
19385;DHT22;9828;54.122;17.974;2023-06-04T20:54:05;16.20;99.90
19385;DHT22;9828;54.122;17.974;2023-06-04T20:59:26;16.00;99.90
19385;DHT22;9828;54.122;17.974;2023-06-04T21:04:47;15.80;99.90
19385;DHT22;9828;54.122;17.974;2023-06-04T21:10:09;15.70;99.90
19385;DHT22;9828;54.122;17.974;2023-06-04T21:15:30;15.60;99.90
19385;DHT22;9828;54.122;17.974;2023-06-04T21:20:51;15.50;99.90
19385;DHT22;9828;54.122;17.974;2023-06-04T21:31:35;15.30;99.90
19385;DHT22;9828;54.122;17.974;2023-06-04T21:36:57;15.10;99.90
19385;DHT22;9828;54.122;17.974;2023-06-04T21:42:18;15.00;99.90
19385;DHT22;9828;54.122;17.974;2023-06-04T21:47:39;15.20;1.00
19385;DHT22;9828;54.122;17.974;2023-06-04T21:53:01;14.90;99.90
19385;DHT22;9828;54.122;17.974;2023-06-04T21:58:22;14.80;99.90
19385;DHT22;9828;54.122;17.974;2023-06-04T22:03:43;14.50;99.90
19385;DHT22;9828;54.122;17.974;2023-06-04T22:09:04;14.60;1.00
19385;DHT22;9828;54.122;17.974;2023-06-04T22:14:26;14.60;1.00
19385;DHT22;9828;54.122;17.974;2023-06-04T23:13:42;13.70;99.90
